Gwinner, ND

9:19 AM CST on February 07, 2016 (GMT -0600)
Gwinner-melroe | | Change Station
CLOSE
Current Station
Airport
Location: Gwinner,
Elevation: 1266 ft
Nearby Weather Stations
Active Advisory: Blizzard Warning

Elev 1266 ft 46.22 °N, 97.64 °W | Updated 4 minutes ago

Overcast
Overcast
36 °F
Feels Like 23 °F
N
25
Wind Variable Wind from WNW
Gusts 30 mph

Today
High -- | Low -- °F
--% Chance of Precip.
Yesterday
High -- | Low -- °F
Precip. -- in
Pressure 29.68 in
Visibility -9999.0 miles
Clouds Mostly Cloudy 3000 ft
Overcast 3600 ft
Windchill 23 °F
Dew Point 30 °F
Humidity 81%
Rainfall 0.00 in
Snow Depth Not available.
7:46 AM 5:43 PM
Waning Crescent, 1% visible
METAR KGWR 071515Z AUTO 29022G26KT BKN030 OVC036 02/M01 A2968 RMK AO1
Pressure 29.68 in
Visibility -9999.0 miles
Clouds Mostly Cloudy 3000 ft
Overcast 3600 ft
Windchill 23 °F
Dew Point 30 °F
Humidity 81%
Rainfall 0.00 in
Snow Depth Not available.
7:46 AM 5:43 PM
Waning Crescent, 1% visible
METAR KGWR 071515Z AUTO 29022G26KT BKN030 OVC036 02/M01 A2968 RMK AO1

10-Day Weather Forecast

Almanac

Astronomy

Feb. 07, 2016 Rise Set
Actual Time
Civil Twilight
Nautical Twilight
Astronomical Twilight
Moon
Length of Visible Light
Length of Day
Tomorrow will be .
, % of the Moon is Illuminated

Today's Extremes

State Highs State Lows

Community

WunderPhotos

Upload Photos

1,891,214 photos uploaded!

WunderBlog® & News

Nearby

Air Quality

  Air Quality AQ Index Pollutant
Not available.

Snow Depth

Station Depth Elevation

Earthquake Activity

City Distance Mag. Time & Date
Minimum magnitude displayed is 2.5.

Coastal Water Temperatures

Place Temperature

Stations

Nearby Weather Stations

Station Location Temp. Windchill Dew Point Humidity Wind Precip. Elev Updated Type
                   

Watches & Warnings

Blizzard Warning
Issued: 4:22 AM CST Feb. 7, 2016 – National Weather Service

... Blizzard Warning remains in effect from 9 am this morning to
6 am CST Monday...

* timing... expect blizzard conditions to develop around 9 am
Sunday and then diminish around 6 am Monday.

* Winds / visibilities... winds gusting as high as 50 mph will
cause whiteout conditions in blowing snow. Significant drifting
of the snow is likely... especially in open areas.

* Snow accumulations... up to 1 to 3 inches.

* Impacts... travel will be very difficult.

Precautionary/preparedness actions...

A Blizzard Warning means severe winter weather conditions are
expected or occurring. Falling and blowing snow with strong winds
and poor visibilities are likely. This will lead to whiteout
conditions... making travel extremely dangerous. Do not travel. If
you must travel... have a winter survival kit with you. If you get
stranded... stay with your vehicle. The latest Road conditions for
the state you are calling from can be obtained by calling 5 1 1.